WEATHER DATA

TODAY
Time Temp. Dewp. Hum. Bar.
00:05 -16.4 -17.9 87 1003.7
00:15 -16.4 -17.9 87 1003.9
00:25 -16.3 -17.7 88 1003.9
00:35 -16.3 -17.7 88 1003.8
00:46 -16.2 -17.6 88 1003.7
00:55 -16.2 -17.6 88 1003.8
01:05 -16.1 -17.5 88 1003.8
01:16 -16.1 -17.5 88 1003.9
01:36 -15.7 -16.9 89 1004
01:45 -15.6 -17 88 1003.8
01:56 -15.5 -16.9 88 1003.9
02:06 -15.5 -16.9 88 1004.1
02:16 -15.5 -16.9 88 1004
02:26 -15.4 -16.8 88 1004.1
02:36 -15.4 -16.8 88 1004.1
02:46 -15.4 -16.8 88 1004.1
02:56 -15.4 -16.8 88 1004
03:07 -15.4 -16.8 88 1004.1
03:17 -15.4 -16.8 88 1004.1
03:26 -15.4 -16.8 88 1004
03:37 -15.4 -16.8 88 1004
03:47 -15.3 -16.7 88 1004
03:57 -15.3 -16.7 88 1004
04:07 -15.2 -16.6 88 1004.2
04:17 -15.2 -16.6 88 1004.2
04:27 -15.1 -16.5 88 1004.2
04:37 -15.1 -16.5 88 1004.1
04:47 -15.1 -16.5 88 1004.1
04:58 -15.1 -16.5 88 1004
05:07 -15.1 -16.5 88 1004.1
05:17 -15.1 -16.5 88 1004
05:28 -15.1 -16.5 88 1003.9
05:38 -15.2 -16.6 88 1004
05:48 -15.2 -16.6 88 1004
05:58 -15.1 -16.5 88 1004
06:08 -15.1 -16.5 88 1004
06:18 -15.1 -16.5 88 1004
06:28 -15.1 -16.5 88 1004.1
06:38 -15.1 -16.5 88 1004
06:48 -15.1 -16.5 88 1004.1
06:58 -15.1 -16.5 88 1004.2
07:08 -15.1 -16.5 88 1004.3
07:19 -15.1 -16.5 88 1004.3
07:28 -15.1 -16.5 88 1004.2
07:38 -15 -16.4 88 1004.2
07:49 -15 -16.4 88 1004.3
07:59 -15 -16.4 88 1004.4
08:09 -14.9 -16.3 88 1004.3
08:19 -14.9 -16.3 88 1004.3
08:29 -14.9 -16.3 88 1004.4
08:39 -14.9 -16.3 88 1004.4
08:49 -15 -16.4 88 1004.5
09:00 -15.2 -16.7 87 1004.5
09:09 -15.4 -16.9 87 1004.5
09:19 -15.6 -17.1 87 1004.6
09:29 -15.9 -17.4 87 1004.7
09:40 -16.1 -17.6 87 1004.8
09:50 -16.3 -17.8 87 1004.9
09:59 -16.4 -17.9 87 1005
10:10 -16.5 -18 87 1005
10:20 -16.6 -18.1 87 1005.1
10:30 -16.6 -18.1 87 1005.1
10:40 -16.7 -18.2 87 1005.2
10:51 -16.7 -18.2 87 1005.1
11:00 -16.8 -18.3 87 1005.1
11:10 -16.8 -18.3 87 1005.1
11:21 -17 -18.5 87 1005.1
11:31 -17.1 -18.6 87 1005.2
11:41 -17.2 -18.7 87 1005.4
11:50 -17.3 -18.8 87 1005.4
12:01 -17.4 -19 86 1005.4
12:11 -17.5 -19.1 86 1005.4
12:21 -17.6 -19.2 86 1005.4
12:31 -17.7 -19.3 86 1005.4
12:42 -17.8 -19.4 86 1005.4
12:51 -17.9 -19.5 86 1005.4
13:01 -18.1 -19.7 86 1005.4
13:12 -18.2 -19.8 86 1005.5
13:22 -18.4 -20 86 1005.6
13:32 -18.6 -20.2 86 1005.7
13:42 -18.6 -20.2 86 1005.8
13:52 -18.7 -20.3 86 1005.8
14:02 -18.9 -20.5 86 1005.9
14:12 -18.9 -20.5 86 1005.9
14:23 -19 -20.6 86 1006
14:33 -19.2 -20.8 86 1006.1
14:42 -19.3 -20.9 86 1006.1

DAY STATISTIC

2021-01-25
TEMPERATURE
AVERAGE
-16.2
HIGH
-14.9
08:09
LOW
-19.3
14:42
PRESSURE
AVERAGE
1004.6
HIGH
1006.1
14:33
LOW
1003.7
00:05
DEWPOINT
AVERAGE
-17.6
HIGH
-16.3
08:09
LOW
-20.9
14:42
HUMIDITY
AVERAGE
87
HIGH
89
01:36
LOW
86
12:01
TEMPERATURE (°C)
LOW
-19.3
HIGH
-14.9
AVERAGE
-16.2
PRESSURE (hpa)
LOW
1003.7
HIGH
1006.1
AVERAGE
1004.6
DEVICE